Back to Top

Language: 

My Weather Underground Personal Weather Station Historical Data with Graphs...

Delerius Weather Station Historical Data
Daily Summary for April 29, 2017 Units:  Metric    English   Both
« Previous Day
Next Day »
Daily Weekly Monthly Yearly Custom
  High: Low: Average:
Temperature: 12.4 °C 7.2 °C 10 °C
Dew Point: 6.7 °C 3.1 °C 5.3 °C
Humidity: 91 % 54 % 74 %
Wind Speed: 16.1 km/h 0 km/h 5.3 km/h
Wind Gust: 30.6 km/h - -
Wind:- - South
Pressure: 1015.5 hPa 1010.4 hPa -
Precipitation: 0 mm    
Historical Graphs
 
 
Tabular Data for April 29, 2017
Time Temperature Dew Point Pressure Wind Wind Speed Wind Gust Humidity Rainfall Rate (Hourly) solar Conditions
00:03 8.9 °C 6.3 °C 1015.1 hPa Calm   4.8 km/h 84 % 0 mm 0 W/m2
00:08 8.9 °C 6.3 °C 1015.1 hPa Calm   3.2 km/h 84 % 0 mm 0 W/m2
00:13 8.9 °C 6.3 °C 1015.5 hPa Calm   3.2 km/h 84 % 0 mm 0 W/m2
00:18 8.9 °C 6.3 °C 1015.5 hPa Calm   4.8 km/h 84 % 0 mm 0 W/m2
00:23 8.9 °C 6.3 °C 1015.1 hPa WNW 1.6 km/h 8 km/h 84 % 0 mm 0 W/m2
00:28 8.9 °C 6.3 °C 1015.1 hPa WNW 1.6 km/h 8 km/h 84 % 0 mm 0 W/m2
00:33 8.8 °C 6.2 °C 1015.1 hPa Calm   3.2 km/h 84 % 0 mm 0 W/m2
00:38 8.8 °C 6.2 °C 1015.1 hPa WNW 1.6 km/h 4.8 km/h 84 % 0 mm 0 W/m2
00:43 8.8 °C 6.4 °C 1015.1 hPa Calm   4.8 km/h 85 % 0 mm 0 W/m2
00:44 8.8 °C 6.4 °C 1015.1 hPa Calm   4.8 km/h 85 % 0 mm 0 W/m2
00:49 8.8 °C 6.4 °C 1015.1 hPa Calm   3.2 km/h 85 % 0 mm 0 W/m2
00:54 8.7 °C 6.3 °C 1015.1 hPa Calm   3.2 km/h 85 % 0 mm 0 W/m2
00:59 8.7 °C 6.3 °C 1015.1 hPa Calm   3.2 km/h 85 % 0 mm 0 W/m2
01:04 8.7 °C 6.3 °C 1015.1 hPa Calm   1.6 km/h 85 % 0 mm 0 W/m2
01:09 8.6 °C 6.2 °C 1015.1 hPa Calm   1.6 km/h 85 % 0 mm 0 W/m2
01:14 8.6 °C 6.2 °C 1015.1 hPa Calm   3.2 km/h 85 % 0 mm 0 W/m2
01:19 8.6 °C 6.2 °C 1015.1 hPa Calm   6.4 km/h 85 % 0 mm 0 W/m2
01:24 8.5 °C 6.1 °C 1014.8 hPa WNW 1.6 km/h 8 km/h 85 % 0 mm 0 W/m2
01:29 8.4 °C 6 °C 1014.8 hPa WNW 4.8 km/h 11.3 km/h 85 % 0 mm 0 W/m2
01:34 8.4 °C 6 °C 1014.8 hPa NW 4.8 km/h 11.3 km/h 85 % 0 mm 0 W/m2
01:39 8.4 °C 5.8 °C 1014.8 hPa NW 4.8 km/h 11.3 km/h 84 % 0 mm 0 W/m2
01:44 8.4 °C 5.8 °C 1014.8 hPa NW 4.8 km/h 11.3 km/h 84 % 0 mm 0 W/m2
01:49 8.4 °C 5.8 °C 1014.8 hPa NW 3.2 km/h 9.7 km/h 84 % 0 mm 0 W/m2
01:54 8.4 °C 5.8 °C 1014.8 hPa NW 1.6 km/h 8 km/h 84 % 0 mm 0 W/m2
01:59 8.4 °C 5.8 °C 1014.8 hPa Calm   3.2 km/h 84 % 0 mm 0 W/m2
02:04 8.4 °C 5.8 °C 1014.8 hPa Calm   6.4 km/h 84 % 0 mm 0 W/m2
02:09 8.4 °C 5.8 °C 1014.8 hPa NW 1.6 km/h 6.4 km/h 84 % 0 mm 0 W/m2
02:14 8.4 °C 5.8 °C 1014.8 hPa Calm   4.8 km/h 84 % 0 mm 0 W/m2
02:19 8.3 °C 5.9 °C 1014.8 hPa Calm   1.6 km/h 85 % 0 mm 0 W/m2
02:24 8.3 °C 5.9 °C 1014.8 hPa Calm   3.2 km/h 85 % 0 mm 0 W/m2
02:29 8.3 °C 5.9 °C 1014.4 hPa Calm   3.2 km/h 85 % 0 mm 0 W/m2
02:34 8.3 °C 5.9 °C 1014.8 hPa Calm   1.6 km/h 85 % 0 mm 0 W/m2
02:39 8.3 °C 5.9 °C 1014.4 hPa Calm     85 % 0 mm 0 W/m2
02:44 8.3 °C 5.9 °C 1014.4 hPa Calm   3.2 km/h 85 % 0 mm 0 W/m2
02:49 8.2 °C 5.8 °C 1014.8 hPa Calm   3.2 km/h 85 % 0 mm 0 W/m2
02:54 8.2 °C 6 °C 1014.4 hPa Calm   1.6 km/h 86 % 0 mm 0 W/m2
02:59 8.2 °C 6 °C 1014.8 hPa Calm   3.2 km/h 86 % 0 mm 0 W/m2
03:04 8.2 °C 6 °C 1014.8 hPa Calm   3.2 km/h 86 % 0 mm 0 W/m2
03:09 8.1 °C 5.9 °C 1014.8 hPa Calm   1.6 km/h 86 % 0 mm 0 W/m2
03:14 8.1 °C 6.1 °C 1014.8 hPa Calm   3.2 km/h 87 % 0 mm 0 W/m2
03:19 8.1 °C 6.1 °C 1014.4 hPa Calm   4.8 km/h 87 % 0 mm 0 W/m2
03:24 7.9 °C 5.9 °C 1014.4 hPa Calm   4.8 km/h 87 % 0 mm 0 W/m2
03:29 7.9 °C 6.1 °C 1014.4 hPa Calm   4.8 km/h 88 % 0 mm 0 W/m2
03:34 7.9 °C 6.1 °C 1014.4 hPa Calm   1.6 km/h 88 % 0 mm 0 W/m2
03:39 7.9 °C 6.1 °C 1014.4 hPa Calm     88 % 0 mm 0 W/m2
03:44 7.9 °C 6.1 °C 1014.4 hPa Calm     88 % 0 mm 0 W/m2
03:45 7.9 °C 6.1 °C 1014.4 hPa Calm     88 % 0 mm 0 W/m2
03:50 7.9 °C 6.1 °C 1014.4 hPa Calm     88 % 0 mm 0 W/m2
03:55 7.8 °C 5.9 °C 1014.4 hPa Calm     88 % 0 mm 0 W/m2
04:00 7.8 °C 5.9 °C 1014.4 hPa Calm     88 % 0 mm 0 W/m2
04:05 7.8 °C 5.9 °C 1014.4 hPa Calm     88 % 0 mm 0 W/m2
04:10 7.8 °C 5.9 °C 1014.1 hPa Calm     88 % 0 mm 0 W/m2
04:14 7.7 °C 5.8 °C 1014.1 hPa Calm     88 % 0 mm 0 W/m2
04:19 7.7 °C 5.8 °C 1014.1 hPa Calm     88 % 0 mm 0 W/m2
04:24 7.6 °C 5.7 °C 1014.4 hPa Calm     88 % 0 mm 0 W/m2
04:29 7.6 °C 5.9 °C 1014.4 hPa Calm     89 % 0 mm 0 W/m2
04:34 7.6 °C 5.9 °C 1014.1 hPa Calm     89 % 0 mm 0 W/m2
04:39 7.6 °C 5.7 °C 1014.1 hPa Calm     88 % 0 mm 0 W/m2
04:44 7.6 °C 5.7 °C 1014.1 hPa Calm     88 % 0 mm 0 W/m2
04:49 7.6 °C 5.9 °C 1014.1 hPa Calm     89 % 0 mm 0 W/m2
04:54 7.6 °C 5.9 °C 1014.1 hPa Calm     89 % 0 mm 0 W/m2
05:00 7.6 °C 5.9 °C 1014.1 hPa Calm     89 % 0 mm 0 W/m2
05:05 7.6 °C 5.9 °C 1014.1 hPa Calm     89 % 0 mm 0 W/m2
05:10 7.6 °C 5.9 °C 1014.1 hPa Calm     89 % 0 mm 0 W/m2
05:15 7.5 °C 5.8 °C 1014.1 hPa Calm     89 % 0 mm 0 W/m2
05:20 7.5 °C 5.8 °C 1014.1 hPa Calm   3.2 km/h 89 % 0 mm 0 W/m2
05:25 7.4 °C 5.7 °C 1013.8 hPa Calm   4.8 km/h 89 % 0 mm 0 W/m2
05:30 7.4 °C 5.7 °C 1013.8 hPa Calm   4.8 km/h 89 % 0 mm 0 W/m2
05:35 7.4 °C 5.7 °C 1013.8 hPa Calm     89 % 0 mm 0 W/m2
05:40 7.3 °C 5.6 °C 1013.8 hPa Calm     89 % 0 mm 0 W/m2
05:45 7.3 °C 5.8 °C 1014.1 hPa Calm   3.2 km/h 90 % 0 mm 0 W/m2
05:50 7.3 °C 5.8 °C 1014.1 hPa Calm   3.2 km/h 90 % 0 mm 5 W/m2
05:55 7.3 °C 5.8 °C 1013.8 hPa Calm   3.2 km/h 90 % 0 mm 5 W/m2
06:00 7.2 °C 5.7 °C 1014.1 hPa Calm     90 % 0 mm 7 W/m2
06:05 7.2 °C 5.7 °C 1014.1 hPa Calm     90 % 0 mm 9 W/m2
06:10 7.2 °C 5.8 °C 1014.1 hPa Calm     91 % 0 mm 11 W/m2
06:15 7.2 °C 5.8 °C 1014.1 hPa Calm     91 % 0 mm 12 W/m2
06:20 7.2 °C 5.8 °C 1014.1 hPa Calm     91 % 0 mm 19 W/m2
06:25 7.2 °C 5.8 °C 1014.1 hPa Calm     91 % 0 mm 21 W/m2
06:30 7.2 °C 5.8 °C 1014.1 hPa Calm     91 % 0 mm 25 W/m2
06:35 7.3 °C 5.9 °C 1014.1 hPa Calm     91 % 0 mm 33 W/m2
06:40 7.3 °C 5.9 °C 1014.1 hPa Calm     91 % 0 mm 42 W/m2
06:45 7.4 °C 6 °C 1014.1 hPa Calm     91 % 0 mm 47 W/m2
06:50 7.4 °C 6 °C 1014.1 hPa Calm     91 % 0 mm 46 W/m2
06:55 7.4 °C 6 °C 1014.1 hPa Calm     91 % 0 mm 46 W/m2
07:00 7.5 °C 6.1 °C 1014.1 hPa Calm     91 % 0 mm 49 W/m2
07:05 7.5 °C 6.1 °C 1014.1 hPa Calm     91 % 0 mm 53 W/m2
07:10 7.5 °C 6.1 °C 1014.1 hPa Calm     91 % 0 mm 58 W/m2
07:15 7.6 °C 6.2 °C 1014.1 hPa Calm     91 % 0 mm 51 W/m2
07:20 7.6 °C 6.2 °C 1014.1 hPa Calm     91 % 0 mm 51 W/m2
07:25 7.7 °C 6.3 °C 1014.1 hPa Calm     91 % 0 mm 53 W/m2
07:30 7.7 °C 6.2 °C 1014.1 hPa Calm     90 % 0 mm 67 W/m2
07:35 7.8 °C 6.3 °C 1014.1 hPa Calm     90 % 0 mm 58 W/m2
07:40 7.8 °C 6.1 °C 1014.1 hPa Calm     89 % 0 mm 86 W/m2
07:45 7.9 °C 6.2 °C 1014.1 hPa Calm     89 % 0 mm 90 W/m2
07:50 8 °C 6.3 °C 1014.1 hPa Calm     89 % 0 mm 100 W/m2
07:56 8.1 °C 6.2 °C 1014.1 hPa Calm     88 % 0 mm 90 W/m2
08:01 8.2 °C 6.3 °C 1014.1 hPa Calm     88 % 0 mm 83 W/m2
08:06 8.3 °C 6.1 °C 1014.1 hPa Calm     86 % 0 mm 67 W/m2
08:11 8.3 °C 5.9 °C 1014.1 hPa Calm     85 % 0 mm 54 W/m2
08:16 8.4 °C 5.8 °C 1014.1 hPa Calm     84 % 0 mm 51 W/m2
08:21 8.5 °C 5.8 °C 1014.1 hPa Calm     83 % 0 mm 46 W/m2
08:26 8.6 °C 5.9 °C 1014.1 hPa Calm     83 % 0 mm 53 W/m2
08:31 8.6 °C 5.7 °C 1014.1 hPa Calm     82 % 0 mm 60 W/m2
08:36 8.7 °C 5.8 °C 1014.1 hPa Calm   3.2 km/h 82 % 0 mm 72 W/m2
08:41 8.6 °C 5.5 °C 1014.1 hPa Calm   3.2 km/h 81 % 0 mm 77 W/m2
08:46 8.7 °C 5.6 °C 1014.1 hPa Calm   3.2 km/h 81 % 0 mm 79 W/m2
08:51 8.7 °C 5.6 °C 1014.1 hPa Calm   3.2 km/h 81 % 0 mm 74 W/m2
08:56 8.7 °C 5.6 °C 1014.1 hPa Calm   3.2 km/h 81 % 0 mm 109 W/m2
09:01 8.8 °C 5.7 °C 1014.1 hPa Calm   3.2 km/h 81 % 0 mm 127 W/m2
09:06 8.9 °C 5.8 °C 1014.1 hPa Calm     81 % 0 mm 206 W/m2
09:11 9.1 °C 6 °C 1014.1 hPa Calm     81 % 0 mm 283 W/m2
09:16 9.3 °C 5.8 °C 1014.1 hPa Calm   3.2 km/h 79 % 0 mm 396 W/m2
09:21 9.5 °C 6.1 °C 1014.1 hPa Calm   3.2 km/h 79 % 0 mm 383 W/m2
09:26 9.8 °C 6.2 °C 1014.1 hPa Calm   6.4 km/h 78 % 0 mm 378 W/m2
09:31 10.1 °C 6.2 °C 1014.1 hPa NW 1.6 km/h 6.4 km/h 77 % 0 mm 353 W/m2
09:36 10.3 °C 6.3 °C 1014.1 hPa NW 1.6 km/h 4.8 km/h 76 % 0 mm 677 W/m2
09:41 10.6 °C 6.3 °C 1013.8 hPa Calm   6.4 km/h 75 % 0 mm 323 W/m2
09:46 10.9 °C 6.4 °C 1013.8 hPa Calm   6.4 km/h 74 % 0 mm 729 W/m2
09:51 11.3 °C 6.6 °C 1013.8 hPa NW 1.6 km/h 8 km/h 73 % 0 mm 510 W/m2
09:56 11.4 °C 6.6 °C 1013.8 hPa NW 1.6 km/h 8 km/h 72 % 0 mm 737 W/m2
10:01 11.6 °C 6.5 °C 1013.8 hPa WNW 1.6 km/h 6.4 km/h 71 % 0 mm 262 W/m2
10:06 11.6 °C 6.7 °C 1013.8 hPa WNW 1.6 km/h 8 km/h 72 % 0 mm 327 W/m2
10:11 11.8 °C 6.5 °C 1013.8 hPa NW 1.6 km/h 8 km/h 70 % 0 mm 239 W/m2
10:16 11.8 °C 6.5 °C 1013.8 hPa NW 1.6 km/h 8 km/h 70 % 0 mm 167 W/m2
10:21 11.7 °C 6.6 °C 1013.8 hPa West 3.2 km/h 9.7 km/h 71 % 0 mm 109 W/m2
10:26 11.4 °C 6.6 °C 1013.8 hPa West 8 km/h 14.5 km/h 72 % 0 mm 90 W/m2
10:31 11.1 °C 6.4 °C 1013.8 hPa West 9.7 km/h 16.1 km/h 73 % 0 mm 65 W/m2
10:36 10.8 °C 6.6 °C 1013.8 hPa West 8 km/h 16.1 km/h 75 % 0 mm 56 W/m2
10:41 10.7 °C 6.4 °C 1013.8 hPa WNW 4.8 km/h 9.7 km/h 75 % 0 mm 60 W/m2
10:47 10.6 °C 6.3 °C 1013.8 hPa West 6.4 km/h 11.3 km/h 75 % 0 mm 67 W/m2
10:52 10.5 °C 6.4 °C 1013.8 hPa WNW 6.4 km/h 11.3 km/h 76 % 0 mm 69 W/m2
10:57 10.3 °C 6.4 °C 1013.8 hPa West 8 km/h 12.9 km/h 77 % 0 mm 79 W/m2
11:02 10.2 °C 6.3 °C 1013.8 hPa West 8 km/h 12.9 km/h 77 % 0 mm 93 W/m2
11:07 10.1 °C 6.2 °C 1013.8 hPa West 9.7 km/h 16.1 km/h 77 % 0 mm 104 W/m2
11:12 10 °C 6.2 °C 1013.8 hPa West 9.7 km/h 16.1 km/h 77 % 0 mm 95 W/m2
11:17 9.9 °C 6.1 °C 1013.8 hPa West 8 km/h 14.5 km/h 77 % 0 mm 90 W/m2
11:22 9.9 °C 6.1 °C 1013.8 hPa WNW 8 km/h 12.9 km/h 77 % 0 mm 95 W/m2
11:27 9.8 °C 5.8 °C 1013.8 hPa WNW 6.4 km/h 12.9 km/h 76 % 0 mm 104 W/m2
11:32 9.8 °C 5.8 °C 1013.4 hPa West 6.4 km/h 12.9 km/h 76 % 0 mm 121 W/m2
11:37 9.8 °C 5.6 °C 1013.4 hPa West 6.4 km/h 11.3 km/h 75 % 0 mm 146 W/m2
11:42 9.8 °C 5.4 °C 1013.4 hPa WNW 4.8 km/h 11.3 km/h 74 % 0 mm 181 W/m2
11:47 9.9 °C 5.3 °C 1013.4 hPa NW 4.8 km/h 9.7 km/h 73 % 0 mm 202 W/m2
11:52 10 °C 5.2 °C 1013.4 hPa WNW 3.2 km/h 8 km/h 72 % 0 mm 209 W/m2
11:57 10.1 °C 5.1 °C 1013.4 hPa NW 1.6 km/h 8 km/h 71 % 0 mm 216 W/m2
12:02 10.3 °C 5.1 °C 1013.4 hPa NW 1.6 km/h 6.4 km/h 70 % 0 mm 236 W/m2
12:07 10.4 °C 4.9 °C 1013.4 hPa NW 1.6 km/h 8 km/h 69 % 0 mm 255 W/m2
12:12 10.4 °C 4.7 °C 1013.4 hPa NW 1.6 km/h 8 km/h 68 % 0 mm 287 W/m2
12:17 10.6 °C 5.2 °C 1013.4 hPa Calm   4.8 km/h 69 % 0 mm 352 W/m2
12:22 10.7 °C 5.2 °C 1013.4 hPa Calm   3.2 km/h 69 % 0 mm 441 W/m2
12:27 10.9 °C 5.2 °C 1013.4 hPa Calm   6.4 km/h 68 % 0 mm 381 W/m2
12:32 11.2 °C 5.3 °C 1013.4 hPa Calm   6.4 km/h 67 % 0 mm 338 W/m2
12:37 11.3 °C 5.2 °C 1013.1 hPa WNW 1.6 km/h 6.4 km/h 66 % 0 mm 288 W/m2
12:42 11.5 °C 5.4 °C 1013.1 hPa West 1.6 km/h 6.4 km/h 66 % 0 mm 234 W/m2
12:47 11.6 °C 5.4 °C 1013.1 hPa SE 1.6 km/h 9.7 km/h 66 % 0 mm 193 W/m2
12:52 11.6 °C 5.2 °C 1013.1 hPa SE 3.2 km/h 9.7 km/h 65 % 0 mm 237 W/m2
12:57 11.6 °C 5.2 °C 1013.1 hPa SSE 3.2 km/h 8 km/h 65 % 0 mm 234 W/m2
13:02 11.6 °C 5.2 °C 1013.1 hPa SE 4.8 km/h 16.1 km/h 65 % 0 mm 251 W/m2
13:07 11.6 °C 5 °C 1013.1 hPa SE 8 km/h 16.1 km/h 64 % 0 mm 244 W/m2
13:12 11.7 °C 5.1 °C 1013.1 hPa SE 9.7 km/h 19.3 km/h 64 % 0 mm 309 W/m2
13:17 11.8 °C 5 °C 1013.1 hPa SE 9.7 km/h 19.3 km/h 63 % 0 mm 366 W/m2
13:22 12 °C 4.9 °C 1012.8 hPa SSE 8 km/h 17.7 km/h 62 % 0 mm 353 W/m2
13:27 12.1 °C 4.6 °C 1012.8 hPa SSE 11.3 km/h 20.9 km/h 60 % 0 mm 392 W/m2
13:32 12.1 °C 4.3 °C 1013.1 hPa South 12.9 km/h 25.7 km/h 59 % 0 mm 392 W/m2
13:37 12.1 °C 4.3 °C 1013.1 hPa SSW 14.5 km/h 25.7 km/h 59 % 0 mm 325 W/m2
13:43 12 °C 4 °C 1013.1 hPa South 14.5 km/h 24.1 km/h 58 % 0 mm 283 W/m2
13:46 12 °C 4.2 °C 1013.1 hPa South 14.5 km/h 24.1 km/h 59 % 0 mm 262 W/m2
13:51 12 °C 4.4 °C 1013.1 hPa South 12.9 km/h 24.1 km/h 60 % 0 mm 253 W/m2
13:56 12 °C 4.2 °C 1013.1 hPa South 12.9 km/h 24.1 km/h 59 % 0 mm 260 W/m2
14:01 12 °C 4.2 °C 1013.1 hPa SSE 11.3 km/h 19.3 km/h 59 % 0 mm 283 W/m2
14:06 12 °C 4.2 °C 1013.1 hPa SSE 11.3 km/h 19.3 km/h 59 % 0 mm 260 W/m2
14:11 12 °C 3.7 °C 1012.8 hPa SE 11.3 km/h 17.7 km/h 57 % 0 mm 276 W/m2
14:16 12.1 °C 4.1 °C 1012.8 hPa SE 9.7 km/h 16.1 km/h 58 % 0 mm 297 W/m2
14:21 12.1 °C 3.8 °C 1012.8 hPa SSE 11.3 km/h 24.1 km/h 57 % 0 mm 332 W/m2
14:26 12.2 °C 3.7 °C 1012.8 hPa South 12.9 km/h 24.1 km/h 56 % 0 mm 295 W/m2
14:31 12.3 °C 3.5 °C 1012.8 hPa South 12.9 km/h 24.1 km/h 55 % 0 mm 283 W/m2
14:36 12.2 °C 3.7 °C 1012.8 hPa South 14.5 km/h 29 km/h 56 % 0 mm 309 W/m2
14:41 12.2 °C 3.7 °C 1012.8 hPa South 16.1 km/h 29 km/h 56 % 0 mm 346 W/m2
14:46 12.2 °C 3.7 °C 1012.8 hPa SSW 16.1 km/h 24.1 km/h 56 % 0 mm 302 W/m2
14:51 12.1 °C 3.6 °C 1012.8 hPa SSW 16.1 km/h 30.6 km/h 56 % 0 mm 297 W/m2
14:56 12 °C 3.5 °C 1012.8 hPa South 16.1 km/h 30.6 km/h 56 % 0 mm 279 W/m2
15:01 11.9 °C 3.7 °C 1012.8 hPa South 14.5 km/h 22.5 km/h 57 % 0 mm 357 W/m2
15:06 12 °C 3.7 °C 1012.8 hPa South 16.1 km/h 24.1 km/h 57 % 0 mm 306 W/m2
15:11 12 °C 3.2 °C 1012.8 hPa SSW 16.1 km/h 24.1 km/h 55 % 0 mm 290 W/m2
15:16 11.9 °C 3.7 °C 1012.8 hPa SSW 12.9 km/h 24.1 km/h 57 % 0 mm 265 W/m2
15:21 12 °C 3.5 °C 1012.4 hPa SSW 12.9 km/h 19.3 km/h 56 % 0 mm 271 W/m2
15:26 12.1 °C 3.6 °C 1012.4 hPa SW 12.9 km/h 20.9 km/h 56 % 0 mm 241 W/m2
15:31 11.9 °C 3.1 °C 1012.4 hPa SSW 12.9 km/h 20.9 km/h 55 % 0 mm 229 W/m2
15:36 11.9 °C 3.1 °C 1012.4 hPa SSW 12.9 km/h 20.9 km/h 55 % 0 mm 234 W/m2
15:41 11.8 °C 3.1 °C 1012.4 hPa SW 12.9 km/h 29 km/h 55 % 0 mm 225 W/m2
15:46 11.9 °C 3.4 °C 1012.4 hPa SSW 12.9 km/h 29 km/h 56 % 0 mm 192 W/m2
15:51 11.9 °C 3.4 °C 1012.4 hPa South 11.3 km/h 29 km/h 56 % 0 mm 209 W/m2
15:56 11.9 °C 3.4 °C 1012.4 hPa South 14.5 km/h 29 km/h 56 % 0 mm 192 W/m2
16:01 11.8 °C 3.3 °C 1012.4 hPa South 14.5 km/h 29 km/h 56 % 0 mm 197 W/m2
16:06 11.9 °C 3.7 °C 1012.4 hPa South 11.3 km/h 22.5 km/h 57 % 0 mm 214 W/m2
16:11 12 °C 3.7 °C 1012.4 hPa South 11.3 km/h 22.5 km/h 57 % 0 mm 221 W/m2
16:16 12.1 °C 3.3 °C 1012.1 hPa South 11.3 km/h 24.1 km/h 55 % 0 mm 216 W/m2
16:21 12.1 °C 3.6 °C 1012.1 hPa SSW 12.9 km/h 24.1 km/h 56 % 0 mm 276 W/m2
16:26 12.2 °C 3.4 °C 1012.1 hPa SSW 9.7 km/h 17.7 km/h 55 % 0 mm 251 W/m2
16:31 12.2 °C 3.4 °C 1012.1 hPa South 9.7 km/h 19.3 km/h 55 % 0 mm 248 W/m2
16:36 12.2 °C 3.7 °C 1012.1 hPa South 9.7 km/h 19.3 km/h 56 % 0 mm 236 W/m2
16:41 12.3 °C 3.5 °C 1012.1 hPa South 9.7 km/h 22.5 km/h 55 % 0 mm 209 W/m2
16:46 12.3 °C 3.5 °C 1012.1 hPa South 14.5 km/h 29 km/h 55 % 0 mm 183 W/m2
16:51 12.3 °C 3.2 °C 1012.1 hPa South 16.1 km/h 29 km/h 54 % 0 mm 156 W/m2
16:56 12.3 °C 3.5 °C 1011.7 hPa South 12.9 km/h 25.7 km/h 55 % 0 mm 137 W/m2
17:01 12.3 °C 3.5 °C 1011.7 hPa South 9.7 km/h 20.9 km/h 55 % 0 mm 134 W/m2
17:06 12.3 °C 3.5 °C 1011.7 hPa South 9.7 km/h 22.5 km/h 55 % 0 mm 132 W/m2
17:12 12.4 °C 3.6 °C 1011.7 hPa SSE 12.9 km/h 22.5 km/h 55 % 0 mm 127 W/m2
17:17 12.4 °C 3.6 °C 1011.7 hPa SE 12.9 km/h 20.9 km/h 55 % 0 mm 134 W/m2
17:22 12.4 °C 3.6 °C 1011.7 hPa SSE 11.3 km/h 19.3 km/h 55 % 0 mm 123 W/m2
17:27 12.4 °C 3.8 °C 1011.7 hPa SSE 9.7 km/h 17.7 km/h 56 % 0 mm 125 W/m2
17:32 12.4 °C 3.8 °C 1011.7 hPa South 9.7 km/h 20.9 km/h 56 % 0 mm 120 W/m2
17:37 12.4 °C 3.8 °C 1011.7 hPa SSE 9.7 km/h 20.9 km/h 56 % 0 mm 111 W/m2
17:42 12.3 °C 3.8 °C 1011.7 hPa SSE 9.7 km/h 22.5 km/h 56 % 0 mm 91 W/m2
17:47 12.3 °C 4 °C 1011.4 hPa SE 11.3 km/h 22.5 km/h 57 % 0 mm 105 W/m2
17:52 12.3 °C 4 °C 1011.4 hPa SE 11.3 km/h 19.3 km/h 57 % 0 mm 93 W/m2
17:57 12.3 °C 4 °C 1011.4 hPa SSE 11.3 km/h 17.7 km/h 57 % 0 mm 77 W/m2
18:02 12.2 °C 3.9 °C 1011.4 hPa SSE 12.9 km/h 22.5 km/h 57 % 0 mm 76 W/m2
18:07 12.2 °C 4.2 °C 1011.4 hPa SSE 14.5 km/h 22.5 km/h 58 % 0 mm 76 W/m2
18:12 12.2 °C 4.2 °C 1011.4 hPa SSE 12.9 km/h 22.5 km/h 58 % 0 mm 70 W/m2
18:17 12.2 °C 4.2 °C 1011.4 hPa SSE 11.3 km/h 19.3 km/h 58 % 0 mm 69 W/m2
18:22 12.2 °C 3.7 °C 1011.4 hPa SE 12.9 km/h 25.7 km/h 56 % 0 mm 76 W/m2
18:27 12.2 °C 3.7 °C 1011.1 hPa SE 14.5 km/h 25.7 km/h 56 % 0 mm 74 W/m2
18:32 12.2 °C 3.7 °C 1011.1 hPa SSE 12.9 km/h 20.9 km/h 56 % 0 mm 58 W/m2
18:37 12.2 °C 3.7 °C 1011.1 hPa SSE 11.3 km/h 20.9 km/h 56 % 0 mm 40 W/m2
18:42 12.2 °C 3.7 °C 1011.1 hPa SSE 9.7 km/h 20.9 km/h 56 % 0 mm 33 W/m2
18:47 12.1 °C 4.1 °C 1011.1 hPa SSE 9.7 km/h 20.9 km/h 58 % 0 mm 33 W/m2
18:52 12.1 °C 4.3 °C 1011.1 hPa SE 11.3 km/h 19.3 km/h 59 % 0 mm 25 W/m2
18:57 12 °C 4.4 °C 1011.1 hPa SE 11.3 km/h 19.3 km/h 60 % 0 mm 26 W/m2
19:02 11.9 °C 4.6 °C 1011.1 hPa SE 11.3 km/h 19.3 km/h 61 % 0 mm 37 W/m2
19:07 11.9 °C 4.8 °C 1011.1 hPa SE 9.7 km/h 17.7 km/h 62 % 0 mm 33 W/m2
19:12 11.9 °C 4.8 °C 1011.1 hPa SE 9.7 km/h 16.1 km/h 62 % 0 mm 33 W/m2
19:17 11.8 °C 4.7 °C 1011.1 hPa SE 9.7 km/h 16.1 km/h 62 % 0 mm 37 W/m2
19:22 11.8 °C 4.7 °C 1011.1 hPa SE 8 km/h 16.1 km/h 62 % 0 mm 37 W/m2
19:27 11.8 °C 4.7 °C 1011.1 hPa SE 8 km/h 12.9 km/h 62 % 0 mm 33 W/m2
19:32 11.8 °C 4.5 °C 1011.1 hPa SE 8 km/h 14.5 km/h 61 % 0 mm 26 W/m2
19:37 11.8 °C 4.5 °C 1011.1 hPa SE 8 km/h 14.5 km/h 61 % 0 mm 23 W/m2
19:42 11.8 °C 4.5 °C 1011.1 hPa SE 8 km/h 14.5 km/h 61 % 0 mm 18 W/m2
19:47 11.8 °C 4.5 °C 1011.1 hPa SE 8 km/h 12.9 km/h 61 % 0 mm 19 W/m2
19:52 11.8 °C 4.5 °C 1011.1 hPa SE 8 km/h 14.5 km/h 61 % 0 mm 16 W/m2
19:57 11.7 °C 4.7 °C 1011.1 hPa SE 8 km/h 14.5 km/h 62 % 0 mm 12 W/m2
20:02 11.7 °C 4.7 °C 1010.7 hPa SE 6.4 km/h 12.9 km/h 62 % 0 mm 11 W/m2
20:08 11.7 °C 4.4 °C 1011.1 hPa SE 6.4 km/h 12.9 km/h 61 % 0 mm 9 W/m2
20:12 11.6 °C 4.6 °C 1010.7 hPa SE 6.4 km/h 12.9 km/h 62 % 0 mm 5 W/m2
20:18 11.6 °C 4.6 °C 1010.7 hPa SE 6.4 km/h 14.5 km/h 62 % 0 mm 0 W/m2
20:23 11.5 °C 4.4 °C 1010.7 hPa ESE 8 km/h 14.5 km/h 62 % 0 mm 0 W/m2
20:26 11.5 °C 4.4 °C 1010.7 hPa ESE 8 km/h 12.9 km/h 62 % 0 mm 0 W/m2
20:31 11.4 °C 4.6 °C 1010.7 hPa ESE 8 km/h 12.9 km/h 63 % 0 mm 0 W/m2
20:36 11.4 °C 4.6 °C 1010.7 hPa ESE 8 km/h 12.9 km/h 63 % 0 mm 0 W/m2
20:41 11.4 °C 4.6 °C 1010.7 hPa ESE 8 km/h 16.1 km/h 63 % 0 mm 0 W/m2
20:46 11.4 °C 4.8 °C 1010.7 hPa ESE 8 km/h 16.1 km/h 64 % 0 mm 0 W/m2
20:51 11.3 °C 4.7 °C 1010.7 hPa ESE 8 km/h 14.5 km/h 64 % 0 mm 0 W/m2
20:56 11.3 °C 4.9 °C 1010.7 hPa ESE 8 km/h 14.5 km/h 65 % 0 mm 0 W/m2
21:01 11.3 °C 4.9 °C 1010.7 hPa ESE 8 km/h 14.5 km/h 65 % 0 mm 0 W/m2
21:06 11.2 °C 4.8 °C 1010.7 hPa ESE 8 km/h 14.5 km/h 65 % 0 mm 0 W/m2
21:11 11.2 °C 4.8 °C 1011.1 hPa ESE 8 km/h 14.5 km/h 65 % 0 mm 0 W/m2
21:16 11.2 °C 5.1 °C 1010.7 hPa ESE 4.8 km/h 11.3 km/h 66 % 0 mm 0 W/m2
21:21 11.1 °C 5 °C 1010.7 hPa ESE 6.4 km/h 14.5 km/h 66 % 0 mm 0 W/m2
21:26 11.1 °C 5.2 °C 1010.7 hPa ESE 9.7 km/h 19.3 km/h 67 % 0 mm 0 W/m2
21:31 11 °C 5.5 °C 1010.7 hPa ESE 9.7 km/h 19.3 km/h 69 % 0 mm 0 W/m2
21:36 10.9 °C 5.7 °C 1010.7 hPa ESE 11.3 km/h 17.7 km/h 70 % 0 mm 0 W/m2
21:41 10.8 °C 5.7 °C 1010.7 hPa ESE 11.3 km/h 17.7 km/h 71 % 0 mm 0 W/m2
21:46 10.7 °C 5.8 °C 1010.4 hPa ESE 9.7 km/h 16.1 km/h 72 % 0 mm 0 W/m2
21:51 10.6 °C 5.9 °C 1010.4 hPa ESE 9.7 km/h 19.3 km/h 73 % 0 mm 0 W/m2
21:56 10.4 °C 5.8 °C 1010.4 hPa ESE 8 km/h 19.3 km/h 73 % 0 mm 0 W/m2
22:01 10.3 °C 5.9 °C 1010.4 hPa ESE 4.8 km/h 12.9 km/h 74 % 0 mm 0 W/m2
22:06 10.2 °C 5.9 °C 1010.7 hPa ESE 6.4 km/h 12.9 km/h 75 % 0 mm 0 W/m2
22:11 10 °C 6.2 °C 1010.7 hPa ESE 8 km/h 16.1 km/h 77 % 0 mm 0 W/m2
22:13 10 °C 6.2 °C 1010.7 hPa ESE 9.7 km/h 19.3 km/h 77 % 0 mm 0 W/m2
22:18 9.9 °C 6.2 °C 1010.7 hPa ESE 9.7 km/h 19.3 km/h 78 % 0 mm 0 W/m2
22:23 9.8 °C 6.3 °C 1010.7 hPa ESE 8 km/h 16.1 km/h 79 % 0 mm 0 W/m2
22:28 9.7 °C 6.2 °C 1010.7 hPa ESE 8 km/h 16.1 km/h 79 % 0 mm 0 W/m2
22:33 9.7 °C 6.4 °C 1010.7 hPa ESE 8 km/h 12.9 km/h 80 % 0 mm 0 W/m2
22:38 9.6 °C 6.5 °C 1010.7 hPa SE 6.4 km/h 12.9 km/h 81 % 0 mm 0 W/m2
22:43 9.6 °C 6.5 °C 1010.7 hPa SE 6.4 km/h 16.1 km/h 81 % 0 mm 0 W/m2
22:48 9.5 °C 6.6 °C 1010.7 hPa ESE 8 km/h 16.1 km/h 82 % 0 mm 0 W/m2
22:53 9.4 °C 6.5 °C 1010.7 hPa ESE 6.4 km/h 14.5 km/h 82 % 0 mm 0 W/m2
22:58 9.3 °C 6.6 °C 1010.4 hPa ESE 6.4 km/h 12.9 km/h 83 % 0 mm 0 W/m2
23:03 9.2 °C 6.4 °C 1010.4 hPa ESE 6.4 km/h 12.9 km/h 83 % 0 mm 0 W/m2
23:08 9.1 °C 6.6 °C 1010.4 hPa ESE 6.4 km/h 12.9 km/h 84 % 0 mm 0 W/m2
23:13 9.1 °C 6.6 °C 1010.4 hPa ESE 4.8 km/h 12.9 km/h 84 % 0 mm 0 W/m2
23:18 8.9 °C 6.3 °C 1010.4 hPa ESE 6.4 km/h 12.9 km/h 84 % 0 mm 0 W/m2
23:23 8.8 °C 6.2 °C 1010.4 hPa ESE 6.4 km/h 12.9 km/h 84 % 0 mm 0 W/m2
23:26 8.8 °C 6.4 °C 1010.4 hPa ESE 6.4 km/h 12.9 km/h 85 % 0 mm 0 W/m2
23:31 8.7 °C 6.3 °C 1010.4 hPa ESE 6.4 km/h 12.9 km/h 85 % 0 mm 0 W/m2
23:36 8.7 °C 6.3 °C 1010.4 hPa ESE 6.4 km/h 12.9 km/h 85 % 0 mm 0 W/m2
23:41 8.6 °C 6.2 °C 1010.4 hPa ESE 6.4 km/h 12.9 km/h 85 % 0 mm 0 W/m2
23:46 8.6 °C 6.2 °C 1010.4 hPa ESE 6.4 km/h 14.5 km/h 85 % 0 mm 0 W/m2
23:51 8.5 °C 6.1 °C 1010.4 hPa ESE 9.7 km/h 19.3 km/h 85 % 0 mm 0 W/m2
23:56 8.5 °C 6.1 °C 1010.4 hPa ESE 9.7 km/h 19.3 km/h 85 % 0 mm 0 W/m2
Delerius-Weather
Compliments of Weather Underground - 2.25 mb

Data updates at regular intervals.